Prichard, Alabama
Current Conditions -  °F | °C
As of 12:53 PM on Saturday 20 Dec 2014 (Local Time) from KBFM Reporting Station
Overcast Overcast  
Wind Chill: 52°   Ceiling: 700
Heat Index: 52°   Visibility: 10mi
Dew Point: 49°   Wind: 12mph
Humidity: 89%   Direction: 360°N
Pressure: 30.12"   Gusts: NA
Location:  30.74°N, 88.08°W
Report Text: KBFM 201853Z 36010KT 10SM OVC007 11/09 A3012 RMK AO2 SLP198 T01110094
Loading
Personal Weather Stations






























Interactive Weather Map New forecast layout! Learn more

10-Day Weather Forecast

Advertisements
Track Severe Weather on mobile